sensor_id;sensor_type;location;lat;lon;timestamp;P1;durP1;ratioP1;P2;durP2;ratioP2
48613;SDS011;34408;51.426;5.444;2023-03-09T00:02:24;15.20;;;10.90;;
48613;SDS011;34408;51.426;5.444;2023-03-09T00:04:52;14.52;;;10.68;;
48613;SDS011;34408;51.426;5.444;2023-03-09T00:07:22;14.23;;;10.80;;
48613;SDS011;34408;51.426;5.444;2023-03-09T00:09:50;15.32;;;10.90;;
48613;SDS011;34408;51.426;5.444;2023-03-09T00:12:17;15.70;;;11.45;;
48613;SDS011;34408;51.426;5.444;2023-03-09T00:14:45;15.13;;;11.07;;
48613;SDS011;34408;51.426;5.444;2023-03-09T00:17:13;15.90;;;12.30;;
48613;SDS011;34408;51.426;5.444;2023-03-09T00:19:40;14.80;;;11.77;;
48613;SDS011;34408;51.426;5.444;2023-03-09T00:22:08;15.10;;;10.98;;
48613;SDS011;34408;51.426;5.444;2023-03-09T00:24:37;15.07;;;11.18;;
48613;SDS011;34408;51.426;5.444;2023-03-09T00:27:12;16.05;;;12.15;;
48613;SDS011;34408;51.426;5.444;2023-03-09T00:29:40;13.80;;;10.85;;
48613;SDS011;34408;51.426;5.444;2023-03-09T00:32:08;14.32;;;11.25;;
48613;SDS011;34408;51.426;5.444;2023-03-09T00:34:36;15.88;;;11.43;;
48613;SDS011;34408;51.426;5.444;2023-03-09T00:37:03;14.85;;;11.07;;
48613;SDS011;34408;51.426;5.444;2023-03-09T00:39:31;14.68;;;11.25;;
48613;SDS011;34408;51.426;5.444;2023-03-09T00:42:00;15.75;;;12.05;;
48613;SDS011;34408;51.426;5.444;2023-03-09T00:44:28;15.30;;;11.45;;
48613;SDS011;34408;51.426;5.444;2023-03-09T00:46:56;14.38;;;11.45;;
48613;SDS011;34408;51.426;5.444;2023-03-09T00:49:24;16.23;;;11.95;;
48613;SDS011;34408;51.426;5.444;2023-03-09T00:51:51;15.75;;;11.77;;
48613;SDS011;34408;51.426;5.444;2023-03-09T00:54:19;14.88;;;11.23;;
48613;SDS011;34408;51.426;5.444;2023-03-09T00:56:47;15.85;;;12.07;;
48613;SDS011;34408;51.426;5.444;2023-03-09T00:59:16;15.05;;;11.38;;
48613;SDS011;34408;51.426;5.444;2023-03-09T01:01:43;15.82;;;11.90;;
48613;SDS011;34408;51.426;5.444;2023-03-09T01:04:11;15.35;;;11.80;;
48613;SDS011;34408;51.426;5.444;2023-03-09T01:06:39;15.38;;;11.88;;
48613;SDS011;34408;51.426;5.444;2023-03-09T01:09:07;16.83;;;12.48;;
48613;SDS011;34408;51.426;5.444;2023-03-09T01:11:36;15.60;;;11.88;;
48613;SDS011;34408;51.426;5.444;2023-03-09T01:14:04;13.55;;;10.50;;
48613;SDS011;34408;51.426;5.444;2023-03-09T01:16:33;16.75;;;12.65;;
48613;SDS011;34408;51.426;5.444;2023-03-09T01:19:01;14.88;;;11.82;;
48613;SDS011;34408;51.426;5.444;2023-03-09T01:21:29;17.30;;;13.23;;
48613;SDS011;34408;51.426;5.444;2023-03-09T01:23:57;16.40;;;11.77;;
48613;SDS011;34408;51.426;5.444;2023-03-09T01:26:24;15.80;;;12.02;;
48613;SDS011;34408;51.426;5.444;2023-03-09T01:28:52;17.63;;;13.30;;
48613;SDS011;34408;51.426;5.444;2023-03-09T01:31:20;18.33;;;12.98;;
48613;SDS011;34408;51.426;5.444;2023-03-09T01:33:49;14.93;;;11.73;;
48613;SDS011;34408;51.426;5.444;2023-03-09T01:36:18;19.17;;;12.70;;
48613;SDS011;34408;51.426;5.444;2023-03-09T01:38:46;16.50;;;11.63;;
48613;SDS011;34408;51.426;5.444;2023-03-09T01:41:15;14.95;;;11.73;;
48613;SDS011;34408;51.426;5.444;2023-03-09T01:43:46;16.20;;;12.40;;
48613;SDS011;34408;51.426;5.444;2023-03-09T01:46:25;17.92;;;12.82;;
48613;SDS011;34408;51.426;5.444;2023-03-09T01:49:00;16.45;;;12.07;;
48613;SDS011;34408;51.426;5.444;2023-03-09T01:51:32;14.32;;;10.90;;
48613;SDS011;34408;51.426;5.444;2023-03-09T01:54:03;14.30;;;10.73;;
48613;SDS011;34408;51.426;5.444;2023-03-09T01:56:34;16.77;;;10.75;;
48613;SDS011;34408;51.426;5.444;2023-03-09T01:59:06;14.38;;;11.02;;
48613;SDS011;34408;51.426;5.444;2023-03-09T02:01:36;16.15;;;11.73;;
48613;SDS011;34408;51.426;5.444;2023-03-09T02:04:10;15.30;;;11.63;;
48613;SDS011;34408;51.426;5.444;2023-03-09T02:06:42;15.73;;;11.65;;
48613;SDS011;34408;51.426;5.444;2023-03-09T02:09:12;16.02;;;11.98;;
48613;SDS011;34408;51.426;5.444;2023-03-09T02:16:45;14.10;;;10.50;;
48613;SDS011;34408;51.426;5.444;2023-03-09T02:19:16;13.65;;;10.80;;
48613;SDS011;34408;51.426;5.444;2023-03-09T02:21:53;13.90;;;10.93;;
48613;SDS011;34408;51.426;5.444;2023-03-09T02:24:25;14.50;;;11.25;;
48613;SDS011;34408;51.426;5.444;2023-03-09T02:27:08;13.07;;;10.40;;
48613;SDS011;34408;51.426;5.444;2023-03-09T02:29:39;14.65;;;11.18;;
48613;SDS011;34408;51.426;5.444;2023-03-09T02:32:06;14.60;;;10.82;;
48613;SDS011;34408;51.426;5.444;2023-03-09T02:34:34;13.95;;;10.57;;
48613;SDS011;34408;51.426;5.444;2023-03-09T02:37:02;14.27;;;10.90;;
48613;SDS011;34408;51.426;5.444;2023-03-09T02:39:32;14.00;;;10.88;;
48613;SDS011;34408;51.426;5.444;2023-03-09T02:42:03;14.20;;;10.93;;
48613;SDS011;34408;51.426;5.444;2023-03-09T02:44:33;13.93;;;10.40;;
48613;SDS011;34408;51.426;5.444;2023-03-09T02:47:02;13.95;;;10.43;;
48613;SDS011;34408;51.426;5.444;2023-03-09T02:49:35;15.82;;;11.55;;
48613;SDS011;34408;51.426;5.444;2023-03-09T02:52:04;12.32;;;10.13;;
48613;SDS011;34408;51.426;5.444;2023-03-09T02:54:32;14.85;;;11.20;;
48613;SDS011;34408;51.426;5.444;2023-03-09T02:56:59;14.80;;;11.00;;
48613;SDS011;34408;51.426;5.444;2023-03-09T02:59:27;13.98;;;10.82;;
48613;SDS011;34408;51.426;5.444;2023-03-09T03:01:56;14.68;;;10.85;;
48613;SDS011;34408;51.426;5.444;2023-03-09T03:04:24;15.20;;;11.85;;
48613;SDS011;34408;51.426;5.444;2023-03-09T03:06:52;15.35;;;11.05;;
48613;SDS011;34408;51.426;5.444;2023-03-09T03:09:20;14.60;;;10.98;;
48613;SDS011;34408;51.426;5.444;2023-03-09T03:11:47;13.88;;;10.38;;
48613;SDS011;34408;51.426;5.444;2023-03-09T03:14:15;15.77;;;12.10;;
48613;SDS011;34408;51.426;5.444;2023-03-09T03:16:43;14.02;;;10.75;;
48613;SDS011;34408;51.426;5.444;2023-03-09T03:19:12;15.23;;;11.38;;
48613;SDS011;34408;51.426;5.444;2023-03-09T03:21:40;15.35;;;12.02;;
48613;SDS011;34408;51.426;5.444;2023-03-09T03:24:08;17.77;;;12.90;;
48613;SDS011;34408;51.426;5.444;2023-03-09T03:26:35;16.00;;;12.50;;
48613;SDS011;34408;51.426;5.444;2023-03-09T03:29:03;18.30;;;13.07;;
48613;SDS011;34408;51.426;5.444;2023-03-09T03:31:31;15.15;;;11.50;;
48613;SDS011;34408;51.426;5.444;2023-03-09T03:33:59;16.55;;;12.63;;
48613;SDS011;34408;51.426;5.444;2023-03-09T03:36:28;14.88;;;11.95;;
48613;SDS011;34408;51.426;5.444;2023-03-09T03:38:56;16.00;;;12.20;;
48613;SDS011;34408;51.426;5.444;2023-03-09T03:41:24;17.80;;;12.27;;
48613;SDS011;34408;51.426;5.444;2023-03-09T03:43:51;19.33;;;14.30;;
48613;SDS011;34408;51.426;5.444;2023-03-09T03:46:19;16.75;;;12.52;;
48613;SDS011;34408;51.426;5.444;2023-03-09T03:48:47;18.42;;;12.73;;
48613;SDS011;34408;51.426;5.444;2023-03-09T03:51:14;16.38;;;12.82;;
48613;SDS011;34408;51.426;5.444;2023-03-09T03:53:44;18.00;;;14.35;;
48613;SDS011;34408;51.426;5.444;2023-03-09T03:56:11;18.63;;;13.80;;
48613;SDS011;34408;51.426;5.444;2023-03-09T03:58:39;20.00;;;13.85;;
48613;SDS011;34408;51.426;5.444;2023-03-09T04:01:07;18.50;;;13.05;;
48613;SDS011;34408;51.426;5.444;2023-03-09T04:03:35;18.92;;;13.25;;
48613;SDS011;34408;51.426;5.444;2023-03-09T04:06:03;20.02;;;13.68;;
48613;SDS011;34408;51.426;5.444;2023-03-09T04:08:31;18.58;;;13.75;;
48613;SDS011;34408;51.426;5.444;2023-03-09T04:11:03;19.00;;;14.05;;
48613;SDS011;34408;51.426;5.444;2023-03-09T04:13:32;20.95;;;15.02;;
48613;SDS011;34408;51.426;5.444;2023-03-09T04:15:59;21.42;;;14.93;;
48613;SDS011;34408;51.426;5.444;2023-03-09T04:18:28;19.00;;;13.52;;
48613;SDS011;34408;51.426;5.444;2023-03-09T04:20:55;21.77;;;15.65;;
48613;SDS011;34408;51.426;5.444;2023-03-09T04:23:23;23.60;;;15.27;;
48613;SDS011;34408;51.426;5.444;2023-03-09T04:25:54;23.63;;;16.13;;
48613;SDS011;34408;51.426;5.444;2023-03-09T04:28:24;20.67;;;15.63;;
48613;SDS011;34408;51.426;5.444;2023-03-09T04:30:52;22.67;;;15.13;;
48613;SDS011;34408;51.426;5.444;2023-03-09T04:33:20;20.00;;;15.07;;
48613;SDS011;34408;51.426;5.444;2023-03-09T04:35:48;22.15;;;15.57;;
48613;SDS011;34408;51.426;5.444;2023-03-09T04:38:16;25.17;;;17.10;;
48613;SDS011;34408;51.426;5.444;2023-03-09T04:40:44;23.63;;;15.98;;
48613;SDS011;34408;51.426;5.444;2023-03-09T04:43:11;26.05;;;16.90;;
48613;SDS011;34408;51.426;5.444;2023-03-09T04:45:40;22.00;;;15.85;;
48613;SDS011;34408;51.426;5.444;2023-03-09T04:48:08;26.13;;;17.05;;
48613;SDS011;34408;51.426;5.444;2023-03-09T04:50:36;23.48;;;17.48;;
48613;SDS011;34408;51.426;5.444;2023-03-09T04:53:04;25.90;;;18.27;;
48613;SDS011;34408;51.426;5.444;2023-03-09T04:55:31;25.02;;;16.30;;
48613;SDS011;34408;51.426;5.444;2023-03-09T04:58:02;22.63;;;15.73;;
48613;SDS011;34408;51.426;5.444;2023-03-09T05:00:30;24.20;;;17.52;;
48613;SDS011;34408;51.426;5.444;2023-03-09T05:02:59;24.80;;;16.98;;
48613;SDS011;34408;51.426;5.444;2023-03-09T05:05:27;24.25;;;16.77;;
48613;SDS011;34408;51.426;5.444;2023-03-09T05:07:55;27.75;;;18.35;;
48613;SDS011;34408;51.426;5.444;2023-03-09T05:10:23;24.98;;;17.65;;
48613;SDS011;34408;51.426;5.444;2023-03-09T05:12:50;26.85;;;18.30;;
48613;SDS011;34408;51.426;5.444;2023-03-09T05:15:18;27.17;;;18.77;;
48613;SDS011;34408;51.426;5.444;2023-03-09T05:17:46;26.80;;;18.08;;
48613;SDS011;34408;51.426;5.444;2023-03-09T05:20:15;26.17;;;17.45;;
48613;SDS011;34408;51.426;5.444;2023-03-09T05:22:44;28.23;;;18.27;;
48613;SDS011;34408;51.426;5.444;2023-03-09T05:25:12;24.13;;;17.67;;
48613;SDS011;34408;51.426;5.444;2023-03-09T05:27:39;23.05;;;16.45;;
48613;SDS011;34408;51.426;5.444;2023-03-09T05:30:08;27.77;;;17.85;;
48613;SDS011;34408;51.426;5.444;2023-03-09T05:32:36;27.95;;;17.77;;
48613;SDS011;34408;51.426;5.444;2023-03-09T05:35:04;26.70;;;17.35;;
48613;SDS011;34408;51.426;5.444;2023-03-09T05:37:34;27.17;;;18.60;;
48613;SDS011;34408;51.426;5.444;2023-03-09T05:40:02;30.63;;;19.52;;
48613;SDS011;34408;51.426;5.444;2023-03-09T05:42:32;26.67;;;18.58;;
48613;SDS011;34408;51.426;5.444;2023-03-09T05:45:00;27.92;;;18.15;;
48613;SDS011;34408;51.426;5.444;2023-03-09T05:47:29;27.92;;;19.30;;
48613;SDS011;34408;51.426;5.444;2023-03-09T05:49:57;29.52;;;19.63;;
48613;SDS011;34408;51.426;5.444;2023-03-09T05:52:25;28.02;;;19.98;;
48613;SDS011;34408;51.426;5.444;2023-03-09T05:54:54;29.13;;;18.80;;
48613;SDS011;34408;51.426;5.444;2023-03-09T05:57:22;26.45;;;18.65;;
48613;SDS011;34408;51.426;5.444;2023-03-09T05:59:49;29.55;;;18.88;;
48613;SDS011;34408;51.426;5.444;2023-03-09T06:02:17;26.27;;;17.30;;
48613;SDS011;34408;51.426;5.444;2023-03-09T06:04:48;29.38;;;20.25;;
48613;SDS011;34408;51.426;5.444;2023-03-09T06:07:17;26.67;;;18.27;;
48613;SDS011;34408;51.426;5.444;2023-03-09T06:09:45;30.23;;;19.77;;
48613;SDS011;34408;51.426;5.444;2023-03-09T06:12:14;27.23;;;18.30;;
48613;SDS011;34408;51.426;5.444;2023-03-09T06:14:45;29.80;;;19.35;;
48613;SDS011;34408;51.426;5.444;2023-03-09T06:17:14;29.23;;;18.23;;
48613;SDS011;34408;51.426;5.444;2023-03-09T06:19:43;25.88;;;18.35;;
48613;SDS011;34408;51.426;5.444;2023-03-09T06:22:12;27.52;;;18.00;;
48613;SDS011;34408;51.426;5.444;2023-03-09T06:24:39;26.67;;;18.10;;
48613;SDS011;34408;51.426;5.444;2023-03-09T06:27:08;25.20;;;16.73;;
48613;SDS011;34408;51.426;5.444;2023-03-09T06:29:37;27.13;;;18.90;;
48613;SDS011;34408;51.426;5.444;2023-03-09T06:32:05;24.48;;;17.23;;
48613;SDS011;34408;51.426;5.444;2023-03-09T06:34:33;24.83;;;17.00;;
48613;SDS011;34408;51.426;5.444;2023-03-09T06:37:00;26.02;;;18.02;;
48613;SDS011;34408;51.426;5.444;2023-03-09T06:39:29;25.40;;;18.27;;
48613;SDS011;34408;51.426;5.444;2023-03-09T06:41:57;25.10;;;17.50;;
48613;SDS011;34408;51.426;5.444;2023-03-09T06:44:25;25.25;;;17.80;;
48613;SDS011;34408;51.426;5.444;2023-03-09T06:46:54;31.42;;;19.40;;
48613;SDS011;34408;51.426;5.444;2023-03-09T06:49:22;28.08;;;18.00;;
48613;SDS011;34408;51.426;5.444;2023-03-09T06:51:50;26.08;;;18.77;;
48613;SDS011;34408;51.426;5.444;2023-03-09T06:54:17;27.35;;;18.35;;
48613;SDS011;34408;51.426;5.444;2023-03-09T06:56:45;26.00;;;17.02;;
48613;SDS011;34408;51.426;5.444;2023-03-09T06:59:13;28.15;;;18.95;;
48613;SDS011;34408;51.426;5.444;2023-03-09T07:01:41;30.08;;;19.77;;
48613;SDS011;34408;51.426;5.444;2023-03-09T07:04:10;30.20;;;19.77;;
48613;SDS011;34408;51.426;5.444;2023-03-09T07:06:38;28.02;;;18.77;;
48613;SDS011;34408;51.426;5.444;2023-03-09T07:09:06;28.83;;;19.27;;
48613;SDS011;34408;51.426;5.444;2023-03-09T07:11:34;29.45;;;19.58;;
48613;SDS011;34408;51.426;5.444;2023-03-09T07:14:02;31.10;;;19.90;;
48613;SDS011;34408;51.426;5.444;2023-03-09T07:16:30;29.40;;;20.02;;
48613;SDS011;34408;51.426;5.444;2023-03-09T07:18:57;30.33;;;19.27;;
48613;SDS011;34408;51.426;5.444;2023-03-09T07:21:26;29.52;;;19.83;;
48613;SDS011;34408;51.426;5.444;2023-03-09T07:23:56;31.52;;;20.73;;
48613;SDS011;34408;51.426;5.444;2023-03-09T07:26:24;34.67;;;21.50;;
48613;SDS011;34408;51.426;5.444;2023-03-09T07:28:53;30.85;;;20.13;;
48613;SDS011;34408;51.426;5.444;2023-03-09T07:31:21;32.92;;;20.92;;
48613;SDS011;34408;51.426;5.444;2023-03-09T07:33:49;29.13;;;19.63;;
48613;SDS011;34408;51.426;5.444;2023-03-09T07:36:16;32.85;;;20.55;;
48613;SDS011;34408;51.426;5.444;2023-03-09T07:38:45;37.40;;;21.20;;
48613;SDS011;34408;51.426;5.444;2023-03-09T07:41:13;29.98;;;19.42;;
48613;SDS011;34408;51.426;5.444;2023-03-09T07:43:41;30.58;;;19.73;;
48613;SDS011;34408;51.426;5.444;2023-03-09T07:46:11;30.98;;;20.90;;
48613;SDS011;34408;51.426;5.444;2023-03-09T07:48:40;31.88;;;20.98;;
48613;SDS011;34408;51.426;5.444;2023-03-09T07:51:08;33.35;;;21.02;;
48613;SDS011;34408;51.426;5.444;2023-03-09T07:53:38;37.08;;;22.15;;
48613;SDS011;34408;51.426;5.444;2023-03-09T07:56:08;34.13;;;22.33;;
48613;SDS011;34408;51.426;5.444;2023-03-09T07:58:36;33.28;;;20.75;;
48613;SDS011;34408;51.426;5.444;2023-03-09T08:01:05;35.38;;;22.48;;
48613;SDS011;34408;51.426;5.444;2023-03-09T08:03:38;31.15;;;20.85;;
48613;SDS011;34408;51.426;5.444;2023-03-09T08:06:06;33.80;;;20.13;;
48613;SDS011;34408;51.426;5.444;2023-03-09T08:08:35;32.13;;;20.65;;
48613;SDS011;34408;51.426;5.444;2023-03-09T08:11:03;33.78;;;21.55;;
48613;SDS011;34408;51.426;5.444;2023-03-09T08:13:33;35.47;;;21.48;;
48613;SDS011;34408;51.426;5.444;2023-03-09T08:16:02;33.50;;;21.60;;
48613;SDS011;34408;51.426;5.444;2023-03-09T08:18:31;33.90;;;22.30;;
48613;SDS011;34408;51.426;5.444;2023-03-09T08:21:03;31.58;;;21.02;;
48613;SDS011;34408;51.426;5.444;2023-03-09T08:23:32;35.83;;;23.40;;
48613;SDS011;34408;51.426;5.444;2023-03-09T08:26:01;31.25;;;21.10;;
48613;SDS011;34408;51.426;5.444;2023-03-09T08:28:29;35.75;;;21.38;;
48613;SDS011;34408;51.426;5.444;2023-03-09T08:30:58;34.45;;;21.13;;
48613;SDS011;34408;51.426;5.444;2023-03-09T08:33:26;33.60;;;21.83;;
48613;SDS011;34408;51.426;5.444;2023-03-09T08:35:54;32.60;;;20.50;;
48613;SDS011;34408;51.426;5.444;2023-03-09T08:38:22;32.97;;;22.05;;
48613;SDS011;34408;51.426;5.444;2023-03-09T08:40:50;34.83;;;22.55;;
48613;SDS011;34408;51.426;5.444;2023-03-09T08:43:17;36.88;;;22.90;;
48613;SDS011;34408;51.426;5.444;2023-03-09T08:45:45;39.22;;;23.05;;
48613;SDS011;34408;51.426;5.444;2023-03-09T08:48:15;35.22;;;23.00;;
48613;SDS011;34408;51.426;5.444;2023-03-09T08:50:42;38.15;;;22.70;;
48613;SDS011;34408;51.426;5.444;2023-03-09T08:53:10;36.08;;;23.42;;
48613;SDS011;34408;51.426;5.444;2023-03-09T08:55:38;38.92;;;22.70;;
48613;SDS011;34408;51.426;5.444;2023-03-09T08:58:06;36.45;;;23.17;;
48613;SDS011;34408;51.426;5.444;2023-03-09T09:00:34;36.53;;;22.35;;
48613;SDS011;34408;51.426;5.444;2023-03-09T09:03:01;38.00;;;23.48;;
48613;SDS011;34408;51.426;5.444;2023-03-09T09:05:31;36.20;;;24.15;;
48613;SDS011;34408;51.426;5.444;2023-03-09T09:07:58;37.83;;;22.42;;
48613;SDS011;34408;51.426;5.444;2023-03-09T09:10:26;35.33;;;23.58;;
48613;SDS011;34408;51.426;5.444;2023-03-09T09:13:01;39.05;;;22.77;;
48613;SDS011;34408;51.426;5.444;2023-03-09T09:15:29;36.63;;;22.50;;
48613;SDS011;34408;51.426;5.444;2023-03-09T09:17:57;36.45;;;23.27;;
48613;SDS011;34408;51.426;5.444;2023-03-09T09:20:25;34.72;;;22.20;;
48613;SDS011;34408;51.426;5.444;2023-03-09T09:22:54;40.30;;;24.58;;
48613;SDS011;34408;51.426;5.444;2023-03-09T09:25:22;35.47;;;23.23;;
48613;SDS011;34408;51.426;5.444;2023-03-09T09:27:50;40.95;;;24.63;;
48613;SDS011;34408;51.426;5.444;2023-03-09T09:30:18;36.40;;;23.58;;
48613;SDS011;34408;51.426;5.444;2023-03-09T09:32:46;37.58;;;24.10;;
48613;SDS011;34408;51.426;5.444;2023-03-09T09:35:14;36.03;;;22.77;;
48613;SDS011;34408;51.426;5.444;2023-03-09T09:37:42;37.28;;;23.27;;
48613;SDS011;34408;51.426;5.444;2023-03-09T09:40:12;37.33;;;23.42;;
48613;SDS011;34408;51.426;5.444;2023-03-09T09:42:42;34.47;;;23.25;;
48613;SDS011;34408;51.426;5.444;2023-03-09T09:45:21;35.58;;;23.30;;
48613;SDS011;34408;51.426;5.444;2023-03-09T09:47:53;38.28;;;23.95;;
48613;SDS011;34408;51.426;5.444;2023-03-09T09:50:23;41.33;;;24.65;;
48613;SDS011;34408;51.426;5.444;2023-03-09T09:52:59;41.95;;;25.02;;
48613;SDS011;34408;51.426;5.444;2023-03-09T09:55:33;37.92;;;23.83;;
48613;SDS011;34408;51.426;5.444;2023-03-09T09:58:08;42.47;;;24.02;;
48613;SDS011;34408;51.426;5.444;2023-03-09T10:00:42;37.88;;;23.98;;
48613;SDS011;34408;51.426;5.444;2023-03-09T10:03:17;40.47;;;24.90;;
48613;SDS011;34408;51.426;5.444;2023-03-09T10:05:48;39.25;;;23.63;;
48613;SDS011;34408;51.426;5.444;2023-03-09T10:08:21;37.65;;;24.25;;
48613;SDS011;34408;51.426;5.444;2023-03-09T10:10:54;37.72;;;24.08;;
48613;SDS011;34408;51.426;5.444;2023-03-09T10:13:28;37.35;;;23.92;;
48613;SDS011;34408;51.426;5.444;2023-03-09T10:16:01;36.08;;;23.23;;
48613;SDS011;34408;51.426;5.444;2023-03-09T10:18:36;37.30;;;22.23;;
48613;SDS011;34408;51.426;5.444;2023-03-09T10:21:11;36.67;;;22.08;;
48613;SDS011;34408;51.426;5.444;2023-03-09T10:23:44;34.03;;;22.90;;
48613;SDS011;34408;51.426;5.444;2023-03-09T10:26:23;36.92;;;22.50;;
48613;SDS011;34408;51.426;5.444;2023-03-09T10:29:01;36.38;;;23.58;;
48613;SDS011;34408;51.426;5.444;2023-03-09T10:31:34;37.78;;;22.58;;
48613;SDS011;34408;51.426;5.444;2023-03-09T10:34:11;37.67;;;23.00;;
48613;SDS011;34408;51.426;5.444;2023-03-09T10:36:45;36.03;;;22.67;;
48613;SDS011;34408;51.426;5.444;2023-03-09T10:39:25;36.65;;;22.73;;
48613;SDS011;34408;51.426;5.444;2023-03-09T10:41:58;38.53;;;23.75;;
48613;SDS011;34408;51.426;5.444;2023-03-09T10:44:29;41.17;;;24.17;;
48613;SDS011;34408;51.426;5.444;2023-03-09T10:46:59;36.30;;;21.88;;
48613;SDS011;34408;51.426;5.444;2023-03-09T10:49:29;40.25;;;24.40;;
48613;SDS011;34408;51.426;5.444;2023-03-09T10:51:58;36.40;;;23.40;;
48613;SDS011;34408;51.426;5.444;2023-03-09T10:54:30;35.50;;;21.52;;
48613;SDS011;34408;51.426;5.444;2023-03-09T10:57:03;33.80;;;21.95;;
48613;SDS011;34408;51.426;5.444;2023-03-09T10:59:57;38.80;;;22.67;;
48613;SDS011;34408;51.426;5.444;2023-03-09T11:02:32;36.40;;;23.50;;
48613;SDS011;34408;51.426;5.444;2023-03-09T11:05:12;38.47;;;24.90;;
48613;SDS011;34408;51.426;5.444;2023-03-09T11:07:41;37.03;;;22.75;;
48613;SDS011;34408;51.426;5.444;2023-03-09T11:10:19;32.40;;;21.02;;
48613;SDS011;34408;51.426;5.444;2023-03-09T11:12:51;37.08;;;22.75;;
48613;SDS011;34408;51.426;5.444;2023-03-09T11:15:24;42.15;;;23.08;;
48613;SDS011;34408;51.426;5.444;2023-03-09T11:17:55;36.40;;;21.52;;
48613;SDS011;34408;51.426;5.444;2023-03-09T11:20:28;36.67;;;22.20;;
48613;SDS011;34408;51.426;5.444;2023-03-09T11:23:00;36.53;;;21.83;;
48613;SDS011;34408;51.426;5.444;2023-03-09T11:25:40;38.67;;;23.85;;
48613;SDS011;34408;51.426;5.444;2023-03-09T11:28:22;34.80;;;21.85;;
48613;SDS011;34408;51.426;5.444;2023-03-09T11:30:56;36.63;;;22.05;;
48613;SDS011;34408;51.426;5.444;2023-03-09T11:33:26;36.03;;;21.73;;
48613;SDS011;34408;51.426;5.444;2023-03-09T11:35:56;37.30;;;22.05;;
48613;SDS011;34408;51.426;5.444;2023-03-09T11:38:26;32.03;;;20.85;;
48613;SDS011;34408;51.426;5.444;2023-03-09T11:41:03;32.97;;;19.83;;
48613;SDS011;34408;51.426;5.444;2023-03-09T11:43:39;32.42;;;20.15;;
48613;SDS011;34408;51.426;5.444;2023-03-09T11:46:10;31.17;;;19.67;;
48613;SDS011;34408;51.426;5.444;2023-03-09T11:48:46;32.60;;;19.33;;
48613;SDS011;34408;51.426;5.444;2023-03-09T11:51:17;30.02;;;19.52;;
48613;SDS011;34408;51.426;5.444;2023-03-09T11:53:49;33.63;;;21.83;;
48613;SDS011;34408;51.426;5.444;2023-03-09T11:56:25;37.65;;;20.02;;
48613;SDS011;34408;51.426;5.444;2023-03-09T11:59:00;33.70;;;20.58;;
48613;SDS011;34408;51.426;5.444;2023-03-09T12:01:34;31.45;;;20.75;;
48613;SDS011;34408;51.426;5.444;2023-03-09T12:04:05;37.13;;;19.95;;
48613;SDS011;34408;51.426;5.444;2023-03-09T12:06:41;32.53;;;19.92;;
48613;SDS011;34408;51.426;5.444;2023-03-09T12:09:18;31.90;;;19.52;;
48613;SDS011;34408;51.426;5.444;2023-03-09T12:11:52;32.45;;;19.75;;
48613;SDS011;34408;51.426;5.444;2023-03-09T12:14:26;31.88;;;18.88;;
48613;SDS011;34408;51.426;5.444;2023-03-09T12:16:59;32.55;;;20.60;;
48613;SDS011;34408;51.426;5.444;2023-03-09T12:19:31;33.45;;;19.83;;
48613;SDS011;34408;51.426;5.444;2023-03-09T12:22:02;33.88;;;20.20;;
48613;SDS011;34408;51.426;5.444;2023-03-09T12:24:34;33.25;;;21.65;;
48613;SDS011;34408;51.426;5.444;2023-03-09T12:27:11;35.35;;;20.98;;
48613;SDS011;34408;51.426;5.444;2023-03-09T12:29:44;33.25;;;19.80;;
48613;SDS011;34408;51.426;5.444;2023-03-09T12:38:24;31.48;;;18.65;;
48613;SDS011;34408;51.426;5.444;2023-03-09T12:40:53;31.33;;;19.42;;
48613;SDS011;34408;51.426;5.444;2023-03-09T12:49:26;29.88;;;18.70;;
48613;SDS011;34408;51.426;5.444;2023-03-09T12:52:14;29.58;;;18.35;;
48613;SDS011;34408;51.426;5.444;2023-03-09T12:55:02;27.08;;;17.58;;
48613;SDS011;34408;51.426;5.444;2023-03-09T12:57:40;26.80;;;17.33;;
48613;SDS011;34408;51.426;5.444;2023-03-09T13:03:13;29.65;;;16.90;;
48613;SDS011;34408;51.426;5.444;2023-03-09T13:05:43;25.83;;;16.30;;
48613;SDS011;34408;51.426;5.444;2023-03-09T13:08:18;25.42;;;16.98;;
48613;SDS011;34408;51.426;5.444;2023-03-09T13:10:49;24.45;;;15.77;;
48613;SDS011;34408;51.426;5.444;2023-03-09T13:22:22;23.10;;;14.13;;
48613;SDS011;34408;51.426;5.444;2023-03-09T13:25:03;24.27;;;14.93;;
48613;SDS011;34408;51.426;5.444;2023-03-09T13:27:44;21.58;;;14.40;;
48613;SDS011;34408;51.426;5.444;2023-03-09T13:30:15;20.75;;;13.93;;
48613;SDS011;34408;51.426;5.444;2023-03-09T13:32:48;21.20;;;13.63;;
48613;SDS011;34408;51.426;5.444;2023-03-09T13:35:27;22.73;;;13.93;;
48613;SDS011;34408;51.426;5.444;2023-03-09T13:38:01;21.55;;;13.00;;
48613;SDS011;34408;51.426;5.444;2023-03-09T13:40:46;19.10;;;12.55;;
48613;SDS011;34408;51.426;5.444;2023-03-09T13:43:16;18.67;;;12.50;;
48613;SDS011;34408;51.426;5.444;2023-03-09T13:45:57;17.13;;;11.85;;
48613;SDS011;34408;51.426;5.444;2023-03-09T13:48:28;16.67;;;11.10;;
48613;SDS011;34408;51.426;5.444;2023-03-09T13:50:57;20.58;;;12.80;;
48613;SDS011;34408;51.426;5.444;2023-03-09T13:53:27;15.80;;;11.18;;
48613;SDS011;34408;51.426;5.444;2023-03-09T13:55:57;18.02;;;12.38;;
48613;SDS011;34408;51.426;5.444;2023-03-09T13:58:27;18.80;;;12.23;;
48613;SDS011;34408;51.426;5.444;2023-03-09T14:00:56;20.48;;;12.18;;
48613;SDS011;34408;51.426;5.444;2023-03-09T14:03:26;17.80;;;12.27;;
48613;SDS011;34408;51.426;5.444;2023-03-09T14:05:57;17.40;;;11.75;;
48613;SDS011;34408;51.426;5.444;2023-03-09T14:08:49;20.77;;;11.68;;
48613;SDS011;34408;51.426;5.444;2023-03-09T14:11:20;18.65;;;12.23;;
48613;SDS011;34408;51.426;5.444;2023-03-09T14:13:50;17.35;;;11.05;;
48613;SDS011;34408;51.426;5.444;2023-03-09T14:16:22;16.08;;;10.63;;
48613;SDS011;34408;51.426;5.444;2023-03-09T14:18:50;16.88;;;11.93;;
48613;SDS011;34408;51.426;5.444;2023-03-09T14:21:20;17.67;;;11.60;;
48613;SDS011;34408;51.426;5.444;2023-03-09T14:23:51;18.15;;;10.93;;
48613;SDS011;34408;51.426;5.444;2023-03-09T14:26:26;17.70;;;11.27;;
48613;SDS011;34408;51.426;5.444;2023-03-09T14:29:03;18.45;;;12.10;;
48613;SDS011;34408;51.426;5.444;2023-03-09T14:31:33;17.27;;;10.88;;
48613;SDS011;34408;51.426;5.444;2023-03-09T14:34:02;18.23;;;11.13;;
48613;SDS011;34408;51.426;5.444;2023-03-09T14:36:33;16.60;;;11.07;;
48613;SDS011;34408;51.426;5.444;2023-03-09T14:39:17;17.75;;;11.23;;
48613;SDS011;34408;51.426;5.444;2023-03-09T14:42:00;17.35;;;11.25;;
48613;SDS011;34408;51.426;5.444;2023-03-09T14:44:30;17.30;;;10.90;;
48613;SDS011;34408;51.426;5.444;2023-03-09T14:47:00;17.92;;;10.13;;
48613;SDS011;34408;51.426;5.444;2023-03-09T14:49:28;18.60;;;11.98;;
48613;SDS011;34408;51.426;5.444;2023-03-09T14:51:55;18.88;;;10.90;;
48613;SDS011;34408;51.426;5.444;2023-03-09T14:54:24;14.98;;;10.30;;
48613;SDS011;34408;51.426;5.444;2023-03-09T14:56:53;15.80;;;9.25;;
48613;SDS011;34408;51.426;5.444;2023-03-09T14:59:21;16.10;;;10.13;;
48613;SDS011;34408;51.426;5.444;2023-03-09T15:01:50;16.77;;;10.43;;
48613;SDS011;34408;51.426;5.444;2023-03-09T15:04:26;15.02;;;10.32;;
48613;SDS011;34408;51.426;5.444;2023-03-09T15:06:55;15.20;;;10.15;;
48613;SDS011;34408;51.426;5.444;2023-03-09T15:09:22;19.88;;;11.82;;